< < Back
Terminal Aerodrome Forecast


Current Version              Previous Versions:   1  2  3  4  5  6  7  8  9  

Terminal Aerodrome Forecast

888
FTUS42 KTAE 271700
TAFABY
TAF
KABY 271724Z 2718/2818 04008KT P6SM FEW250
     FM281200 06010KT P6SM BKN030=

Latest METAR

101
SAUS70 KWBC 282100 RRB
MTRABY
METAR KABY 282053Z 06012KT 2SM BR SCT008 BKN013 OVC038 08/07 A3047 RMK
AO2 RAB11E41 SLP319 P0001 60003 T00830067 58007


USA.gov is the U.S. government's official web portal to all federal, state and local government web resources and services.